Time;durP1;ratioP1;P1;durP2;ratioP2;P2;SDS_P1;SDS_P2;PMS_P1;PMS_P2;Temp;Humidity;BMP_temperature;BMP_pressure;BME280_temperature;BME280_humidity;BME280_pressure;Samples;Min_cycle;Max_cycle;Signal;HPM_P1;HPM_P2
2022/05/23 00:01:44;;;;;;;0.00;0.00;;;;;;;19.25;53.41;100873.78;5066394;28;20226;-71
2022/05/23 00:04:11;;;;;;;0.00;0.00;;;;;;;19.23;53.30;100862.28;5066976;28;20068;-71
2022/05/23 00:06:37;;;;;;;0.00;0.00;;;;;;;19.24;53.15;100861.34;5068953;28;20040;-72
2022/05/23 00:09:04;;;;;;;0.00;0.00;;;;;;;19.26;53.77;100855.88;5073368;28;20490;-72
2022/05/23 00:11:30;;;;;;;0.20;0.20;;;;;;;19.24;53.68;100854.13;5081387;28;20036;-72
2022/05/23 00:13:56;;;;;;;0.10;0.10;;;;;;;19.27;53.69;100855.78;5081681;28;20035;-72
2022/05/23 00:16:26;;;;;;;0.10;0.10;;;;;;;19.29;53.59;100847.63;5073075;28;20029;-72
2022/05/23 00:18:52;;;;;;;0.00;0.00;;;;;;;19.28;53.64;100841.41;5059435;28;20028;-72
2022/05/23 00:21:19;;;;;;;0.00;0.00;;;;;;;19.29;54.07;100839.56;5081847;28;20020;-73
2022/05/23 00:23:46;;;;;;;1.85;1.23;;;;;;;19.29;54.18;100829.69;5080425;28;20032;-72
2022/05/23 00:26:16;;;;;;;0.00;0.00;;;;;;;19.30;54.02;100828.75;5074246;28;20037;-72
2022/05/23 00:28:42;;;;;;;0.30;0.30;;;;;;;19.31;54.13;100822.41;5091266;28;20055;-72
2022/05/23 00:31:10;;;;;;;0.00;0.00;;;;;;;19.31;54.31;100830.47;5074279;28;20050;-72
2022/05/23 00:36:26;;;;;;;0.00;0.00;;;;;;;19.33;53.57;100812.44;5069728;28;20105;-72
2022/05/23 00:38:53;;;;;;;0.00;0.00;;;;;;;19.31;54.15;100805.44;5077860;28;20024;-72
2022/05/23 00:44:31;;;;;;;0.00;0.00;;;;;;;19.30;54.47;100799.19;5073820;28;20098;-72
2022/05/23 00:47:18;;;;;;;0.73;0.73;;;;;;;19.36;54.16;100797.97;5079609;28;20020;-72
2022/05/23 00:49:44;;;;;;;0.00;0.00;;;;;;;19.24;54.92;100800.41;5082064;28;20501;-72
2022/05/23 00:52:19;;;;;;;0.00;0.00;;;;;;;19.23;54.82;100793.28;5072599;28;20398;-72
2022/05/23 00:54:49;;;;;;;0.00;0.00;;;;;;;19.21;54.28;100791.66;5084127;28;20120;-72
2022/05/23 00:57:20;;;;;;;0.00;0.00;;;;;;;19.19;54.48;100797.13;5074885;28;20027;-72
2022/05/23 00:59:47;;;;;;;0.20;0.20;;;;;;;19.15;54.62;100781.25;5076094;28;20043;-72
2022/05/23 01:02:14;;;;;;;0.22;0.22;;;;;;;19.14;54.59;100782.22;5063481;28;20028;-72
2022/05/23 01:04:41;;;;;;;0.08;0.08;;;;;;;19.12;55.14;100792.19;5077293;28;20024;-72
2022/05/23 01:07:08;;;;;;;0.05;0.05;;;;;;;19.07;55.25;100787.06;5080214;28;20028;-72
2022/05/23 01:09:35;;;;;;;0.00;0.00;;;;;;;19.03;55.60;100791.75;5074588;28;20570;-72
2022/05/23 01:12:02;;;;;;;0.10;0.10;;;;;;;18.98;55.70;100793.84;5089016;28;20060;-72
2022/05/23 01:14:50;;;;;;;0.05;0.05;;;;;;;19.02;55.54;100784.63;5077457;28;20052;-72
2022/05/23 01:17:17;;;;;;;0.15;0.15;;;;;;;18.87;55.52;100791.72;5058854;28;20124;-72
2022/05/23 01:19:43;;;;;;;0.00;0.00;;;;;;;18.81;55.33;100785.81;5084798;28;20113;-72
2022/05/23 01:25:16;;;;;;;0.00;0.00;;;;;;;18.72;55.78;100788.06;5073069;28;20429;-78
2022/05/23 01:27:42;;;;;;;0.00;0.00;;;;;;;18.64;55.86;100787.63;5075802;28;20054;-78
2022/05/23 01:30:09;;;;;;;0.00;0.00;;;;;;;18.61;55.97;100785.09;5073171;28;20052;-78
2022/05/23 01:32:38;;;;;;;0.00;0.00;;;;;;;18.58;56.32;100779.91;5069152;28;20035;-78
2022/05/23 01:35:05;;;;;;;0.40;0.35;;;;;;;18.56;56.36;100787.16;5063270;28;20055;-76
2022/05/23 01:37:32;;;;;;;0.00;0.00;;;;;;;18.53;55.83;100784.63;5065585;28;20055;-78
2022/05/23 01:39:58;;;;;;;0.00;0.00;;;;;;;18.51;56.88;100786.56;5067607;28;20032;-78
2022/05/23 01:42:24;;;;;;;0.00;0.00;;;;;;;18.51;56.41;100783.88;5071698;28;20020;-78
2022/05/23 01:44:50;;;;;;;0.00;0.00;;;;;;;18.48;56.86;100782.22;5070747;28;20121;-77
2022/05/23 01:47:19;;;;;;;0.10;0.10;;;;;;;18.49;56.78;100783.97;5071421;28;20051;-78
2022/05/23 01:49:45;;;;;;;0.00;0.00;;;;;;;18.47;56.98;100779.59;5074452;28;20044;-79
2022/05/23 01:52:12;;;;;;;0.00;0.00;;;;;;;18.44;57.16;100786.00;5061573;28;20495;-78
2022/05/23 01:54:39;;;;;;;0.08;0.08;;;;;;;18.39;56.93;100775.53;5070745;28;20474;-77
2022/05/23 01:57:08;;;;;;;0.00;0.00;;;;;;;18.36;56.99;100780.22;5056547;28;20033;-79
2022/05/23 02:02:21;;;;;;;0.20;0.20;;;;;;;18.25;57.28;100778.09;5052305;28;20130;-78
2022/05/23 02:04:48;;;;;;;0.00;0.00;;;;;;;18.23;56.98;100771.94;5059528;28;20033;-78
2022/05/23 02:07:15;;;;;;;0.10;0.10;;;;;;;18.19;57.36;100767.69;5067348;28;20032;-79
2022/05/23 02:09:42;;;;;;;0.05;0.05;;;;;;;18.18;57.12;100765.94;5064181;28;20495;-78
2022/05/23 02:12:10;;;;;;;0.00;0.00;;;;;;;18.17;57.39;100766.88;5068075;28;20055;-79
2022/05/23 02:14:38;;;;;;;0.03;0.03;;;;;;;18.17;56.81;100758.84;5057496;28;20490;-79
2022/05/23 02:17:07;;;;;;;0.13;0.13;;;;;;;18.17;57.13;100764.22;5059695;28;20399;-79
2022/05/23 02:19:33;;;;;;;0.00;0.00;;;;;;;18.15;57.63;100758.09;5057637;28;20021;-79
2022/05/23 02:21:59;;;;;;;0.00;0.00;;;;;;;18.13;56.86;100751.91;5057254;28;20908;-79
2022/05/23 02:24:25;;;;;;;0.05;0.05;;;;;;;18.10;57.25;100759.16;5063978;28;20404;-79
2022/05/23 02:26:52;;;;;;;0.00;0.00;;;;;;;18.08;57.17;100742.31;5064374;28;20036;-78
2022/05/23 02:29:18;;;;;;;0.10;0.10;;;;;;;18.08;57.44;100753.03;5074624;28;20081;-79
2022/05/23 02:31:47;;;;;;;0.05;0.05;;;;;;;18.06;57.08;100752.25;5074438;28;20033;-79
2022/05/23 02:34:14;;;;;;;0.00;0.00;;;;;;;18.05;57.74;100746.97;5059495;28;20438;-79
2022/05/23 02:36:40;;;;;;;0.65;0.65;;;;;;;18.03;57.75;100736.34;5049835;28;20025;-78
2022/05/23 02:39:07;;;;;;;0.10;0.10;;;;;;;18.04;57.61;100738.03;5044210;28;20507;-79
2022/05/23 02:41:33;;;;;;;0.45;0.35;;;;;;;18.04;58.01;100732.69;5048398;28;20091;-79
2022/05/23 02:44:00;;;;;;;0.00;0.00;;;;;;;18.06;57.72;100729.94;5052990;28;20036;-78
2022/05/23 02:46:28;;;;;;;0.00;0.00;;;;;;;18.08;57.62;100718.19;5052413;28;20052;-78
2022/05/23 02:48:55;;;;;;;0.00;0.00;;;;;;;18.11;57.25;100709.97;5069674;28;20085;-78
2022/05/23 02:51:21;;;;;;;0.00;0.00;;;;;;;18.15;57.54;100701.78;5055088;28;20032;-79
2022/05/23 02:53:48;;;;;;;0.00;0.00;;;;;;;18.17;57.77;100702.53;5056029;28;20033;-78
2022/05/23 02:56:16;;;;;;;0.00;0.00;;;;;;;18.17;57.80;100692.69;5057547;28;20029;-78
2022/05/23 02:58:42;;;;;;;0.10;0.10;;;;;;;18.18;58.04;100691.75;5052101;28;20617;-78
2022/05/23 03:01:09;;;;;;;0.08;0.08;;;;;;;18.18;57.59;100693.56;5054001;28;20498;-78
2022/05/23 03:03:35;;;;;;;0.00;0.00;;;;;;;18.18;57.47;100675.66;5058429;28;20024;-78
2022/05/23 03:06:03;;;;;;;0.00;0.00;;;;;;;18.20;57.15;100670.22;5044745;28;20041;-77
2022/05/23 03:08:29;;;;;;;0.00;0.00;;;;;;;18.20;57.49;100667.53;5035957;28;20022;-78
2022/05/23 03:10:59;;;;;;;0.10;0.10;;;;;;;18.22;57.43;100671.00;5041514;28;20032;-78
2022/05/23 03:13:26;;;;;;;0.10;0.10;;;;;;;18.21;57.19;100669.25;5040714;28;20028;-78
2022/05/23 03:15:52;;;;;;;0.10;0.10;;;;;;;18.21;57.36;100655.84;5042930;28;20033;-77
2022/05/23 03:18:19;;;;;;;0.00;0.00;;;;;;;18.21;56.76;100645.13;5048204;28;20040;-78
2022/05/23 03:20:45;;;;;;;0.10;0.10;;;;;;;18.19;57.07;100644.34;5067977;28;20060;-77
2022/05/23 03:28:45;;;;;;;1.27;1.00;;;;;;;18.19;57.36;100631.78;5064219;28;20041;-78
2022/05/23 03:31:11;;;;;;;0.00;0.00;;;;;;;18.20;57.55;100627.31;5039692;28;20094;-78
2022/05/23 03:33:37;;;;;;;0.00;0.00;;;;;;;18.21;57.67;100621.00;5039357;28;20025;-77
2022/05/23 03:36:03;;;;;;;0.00;0.00;;;;;;;18.21;57.81;100621.84;5047935;28;20719;-78
2022/05/23 03:38:29;;;;;;;0.20;0.13;;;;;;;18.21;57.53;100616.50;5046050;28;20037;-78
2022/05/23 03:40:55;;;;;;;0.95;0.95;;;;;;;18.16;57.49;100613.19;5038247;28;20030;-78
2022/05/23 03:43:22;;;;;;;0.00;0.00;;;;;;;18.14;57.63;100609.72;5055744;28;20459;-78
2022/05/23 03:45:48;;;;;;;0.10;0.10;;;;;;;18.14;57.22;100592.78;5040823;28;20054;-78
2022/05/23 03:48:15;;;;;;;0.10;0.10;;;;;;;18.13;57.53;100591.06;5034269;28;20029;-78
2022/05/23 03:50:42;;;;;;;0.00;0.00;;;;;;;18.12;57.13;100592.88;5045730;28;20070;-78
2022/05/23 03:53:08;;;;;;;0.00;0.00;;;;;;;18.10;57.29;100571.50;5054434;28;20032;-78
2022/05/23 03:55:34;;;;;;;0.10;0.10;;;;;;;18.10;57.23;100571.50;5060270;28;20554;-79
2022/05/23 03:58:00;;;;;;;0.00;0.00;;;;;;;18.08;57.53;100568.06;5042578;28;20069;-79
2022/05/23 04:00:27;;;;;;;0.00;0.00;;;;;;;18.08;57.55;100572.53;5035581;28;20059;-78
2022/05/23 04:02:53;;;;;;;0.10;0.10;;;;;;;18.06;57.51;100569.09;5050487;28;20034;-78
2022/05/23 04:05:19;;;;;;;0.10;0.10;;;;;;;18.02;57.61;100571.06;5051147;28;20079;-79
2022/05/23 04:07:45;;;;;;;0.00;0.00;;;;;;;18.00;57.64;100570.28;5044638;28;20028;-79
2022/05/23 04:10:16;;;;;;;0.08;0.08;;;;;;;18.03;57.78;100570.13;5052103;28;20031;-78
2022/05/23 04:12:43;;;;;;;0.10;0.08;;;;;;;18.02;57.76;100570.19;5066482;28;20035;-78
2022/05/23 04:15:09;;;;;;;0.00;0.00;;;;;;;18.04;57.99;100571.84;5044955;28;20517;-78
2022/05/23 04:17:38;;;;;;;0.00;0.00;;;;;;;18.06;58.10;100569.94;5048147;28;20039;-78
2022/05/23 04:20:08;;;;;;;0.20;0.20;;;;;;;18.05;57.88;100568.22;5049766;28;20029;-78
2022/05/23 04:22:35;;;;;;;0.10;0.10;;;;;;;18.05;58.06;100568.22;5042666;28;20029;-78
2022/05/23 04:25:02;;;;;;;4.40;0.70;;;;;;;18.03;57.95;100556.72;5048115;28;20403;-78
2022/05/23 04:27:29;;;;;;;0.10;0.10;;;;;;;18.05;57.70;100565.53;5057280;28;20367;-78
2022/05/23 04:29:55;;;;;;;0.00;0.00;;;;;;;18.06;57.73;100559.22;5066147;28;20437;-79
2022/05/23 04:35:14;;;;;;;0.00;0.00;;;;;;;18.06;57.89;100559.22;5050806;28;20411;-78
2022/05/23 04:37:45;;;;;;;0.00;0.00;;;;;;;18.08;57.67;100556.44;5053134;28;20086;-77
2022/05/23 04:40:13;;;;;;;0.00;0.00;;;;;;;18.07;57.24;100552.91;5062693;28;20028;-79
2022/05/23 04:42:39;;;;;;;0.08;0.08;;;;;;;18.06;57.65;100548.50;5050703;28;20052;-78
2022/05/23 04:45:09;;;;;;;0.10;0.10;;;;;;;18.07;57.25;100544.88;5061409;28;20061;-77
2022/05/23 04:50:21;;;;;;;0.03;0.03;;;;;;;18.11;57.55;100530.34;5044951;28;20037;-78
2022/05/23 04:52:47;;;;;;;0.05;0.05;;;;;;;18.14;57.90;100531.13;5045219;28;20033;-78
2022/05/23 04:55:15;;;;;;;0.10;0.10;;;;;;;18.19;57.67;100529.03;5054387;28;20035;-78
2022/05/23 04:57:41;;;;;;;0.00;0.00;;;;;;;18.25;57.43;100520.66;5062207;28;20029;-77
2022/05/23 05:00:10;;;;;;;0.10;0.10;;;;;;;18.35;57.47;100519.16;5052005;28;20529;-78
2022/05/23 05:02:38;;;;;;;0.00;0.00;;;;;;;18.42;57.42;100514.31;5046446;28;20453;-79
2022/05/23 05:05:05;;;;;;;0.00;0.00;;;;;;;18.51;57.57;100510.22;5057119;28;20029;-79
2022/05/23 05:07:31;;;;;;;0.00;0.00;;;;;;;18.59;57.17;100516.88;5048211;28;20100;-78
2022/05/23 05:09:57;;;;;;;0.10;0.10;;;;;;;18.69;57.50;100509.16;5050488;28;20037;-78
2022/05/23 05:12:24;;;;;;;0.00;0.00;;;;;;;18.78;57.06;100502.38;5052369;28;20033;-79
2022/05/23 05:14:50;;;;;;;0.10;0.10;;;;;;;18.85;57.45;100487.59;5052872;28;20029;-78
2022/05/23 05:17:16;;;;;;;0.10;0.10;;;;;;;18.95;57.33;100492.44;5049065;28;20025;-79
2022/05/23 05:19:42;;;;;;;0.10;0.10;;;;;;;19.03;57.52;100496.41;5052258;28;20464;-79
2022/05/23 05:22:08;;;;;;;0.08;0.08;;;;;;;19.09;57.60;100492.50;5040475;28;20111;-78
2022/05/23 05:24:35;;;;;;;0.08;0.08;;;;;;;19.16;57.43;100487.59;5059293;28;20108;-77
2022/05/23 05:27:02;;;;;;;0.10;0.10;;;;;;;19.22;57.08;100471.09;5059732;28;20037;-78
2022/05/23 05:29:29;;;;;;;0.10;0.10;;;;;;;19.30;56.74;100476.88;5046271;28;20056;-78
2022/05/23 05:34:41;;;;;;;0.15;0.15;;;;;;;19.49;56.54;100455.06;5068437;28;20056;-78
2022/05/23 05:37:14;;;;;;;0.00;0.00;;;;;;;19.55;56.30;100457.34;5068762;28;20083;-78
2022/05/23 05:39:42;;;;;;;0.00;0.00;;;;;;;19.61;56.24;100450.72;5066581;28;20032;-79
2022/05/23 05:42:15;;;;;;;0.00;0.00;;;;;;;19.75;55.96;100457.03;5066463;28;20033;-79
2022/05/23 05:44:48;;;;;;;0.00;0.00;;;;;;;19.82;56.37;100456.53;5058788;28;20053;-79
2022/05/23 05:47:16;;;;;;;0.10;0.10;;;;;;;19.90;55.69;100448.00;5058528;28;20036;-79
2022/05/23 05:49:46;;;;;;;0.28;0.28;;;;;;;19.97;55.59;100443.09;5058120;28;20037;-79
2022/05/23 05:52:14;;;;;;;0.10;0.10;;;;;;;20.01;55.72;100450.84;5061285;28;20039;-79
2022/05/23 05:54:41;;;;;;;0.30;0.30;;;;;;;20.07;55.18;100448.72;5061657;28;20064;-78
2022/05/23 05:57:11;;;;;;;0.17;0.17;;;;;;;20.08;55.08;100442.38;5080995;28;20078;-79
2022/05/23 05:59:37;;;;;;;0.00;0.00;;;;;;;20.09;55.55;100442.28;5077648;28;20498;-79
2022/05/23 06:02:06;;;;;;;0.00;0.00;;;;;;;20.13;55.45;100451.00;5068174;28;20114;-79
2022/05/23 06:04:34;;;;;;;0.10;0.10;;;;;;;20.16;55.25;100448.09;5068499;28;20402;-79
2022/05/23 06:12:34;;;;;;;0.00;0.00;;;;;;;20.30;55.31;100442.66;5061194;28;20128;-78
2022/05/23 06:15:00;;;;;;;0.22;0.22;;;;;;;20.36;55.26;100438.69;5066186;28;20402;-78
2022/05/23 06:17:26;;;;;;;0.20;0.20;;;;;;;20.44;54.92;100441.72;5070101;28;20025;-78
2022/05/23 06:19:52;;;;;;;0.10;0.10;;;;;;;20.51;55.30;100434.97;5076095;28;20436;-78
2022/05/23 06:22:19;;;;;;;0.00;0.00;;;;;;;20.59;55.23;100434.44;5074045;28;20035;-78
2022/05/23 06:24:45;;;;;;;0.00;0.00;;;;;;;20.66;54.97;100429.47;5076923;28;20048;-78
2022/05/23 06:27:12;;;;;;;0.00;0.00;;;;;;;20.78;54.61;100428.66;5060829;28;20067;-79
2022/05/23 06:29:39;;;;;;;0.22;0.22;;;;;;;20.86;54.68;100414.69;5066086;28;20029;-79
2022/05/23 06:32:06;;;;;;;0.10;0.10;;;;;;;20.99;54.51;100426.28;5059103;28;20165;-79
2022/05/23 06:34:33;;;;;;;0.20;0.20;;;;;;;21.10;54.07;100416.63;5054195;28;20033;-78
2022/05/23 06:36:59;;;;;;;0.00;0.00;;;;;;;21.14;53.78;100402.78;5065059;28;20402;-79
2022/05/23 06:39:26;;;;;;;0.40;0.40;;;;;;;21.24;53.91;100391.38;5058225;28;20803;-80
2022/05/23 06:41:52;;;;;;;0.03;0.03;;;;;;;21.32;53.79;100403.31;5053618;28;20025;-80
2022/05/23 06:44:18;;;;;;;0.10;0.10;;;;;;;21.42;53.74;100394.53;5051591;28;20163;-79
2022/05/23 06:46:46;;;;;;;0.00;0.00;;;;;;;21.48;53.23;100394.97;5043830;28;20032;-79
2022/05/23 06:49:13;;;;;;;0.10;0.10;;;;;;;21.54;53.00;100377.47;5048928;28;20053;-79
2022/05/23 06:51:40;;;;;;;0.38;0.38;;;;;;;21.58;53.35;100379.03;5052298;28;20032;-79
2022/05/23 06:54:07;;;;;;;0.10;0.10;;;;;;;21.62;53.00;100371.53;5037706;28;20059;-78
2022/05/23 06:56:33;;;;;;;0.10;0.10;;;;;;;;;;5042309;28;20392;-78
2022/05/23 06:59:01;;;;;;;0.10;0.10;;;;;;;21.70;53.53;100360.22;5047640;28;20083;-79
2022/05/23 07:01:27;;;;;;;0.13;0.13;;;;;;;21.73;53.73;100368.06;5039911;28;20064;-79
2022/05/23 07:03:53;;;;;;;0.00;0.00;;;;;;;21.77;53.67;100366.84;5043372;28;20535;-78
2022/05/23 07:12:25;;;;;;;0.00;0.00;;;;;;;21.87;53.70;100381.38;5029727;28;20037;-78
2022/05/23 07:14:40;;;;;;;0.25;0.25;;;;;;;21.95;53.25;100387.03;5035638;28;20056;-78
2022/05/23 07:17:06;;;;;;;0.00;0.00;;;;;;;21.98;53.29;100392.22;5029625;28;20833;-78
2022/05/23 07:19:35;;;;;;;0.00;0.00;;;;;;;22.07;53.22;100390.66;5036155;28;20034;-76
2022/05/23 07:22:04;;;;;;;0.10;0.10;;;;;;;22.11;52.64;100389.44;5047105;23;20049;-86
2022/05/23 07:24:36;;;;;;;0.00;0.00;;;;;;;22.22;52.49;100385.06;5005098;28;20037;-86
2022/05/23 07:27:12;;;;;;;0.20;0.20;;;;;;;22.27;52.56;100381.03;5012393;28;20112;-86
2022/05/23 07:29:38;;;;;;;0.20;0.20;;;;;;;22.26;52.23;100379.31;5002096;28;21840;-86
2022/05/23 07:32:12;;;;;;;2.85;0.47;;;;;;;22.37;51.89;100377.63;5007362;28;20029;-86
2022/05/23 07:34:43;;;;;;;0.55;0.55;;;;;;;22.43;51.74;100364.56;5010498;28;20057;-86
2022/05/23 07:37:29;;;;;;;0.20;0.20;;;;;;;22.61;51.31;100366.81;5011342;28;20038;-85
2022/05/23 07:40:04;;;;;;;0.00;0.00;;;;;;;22.68;51.71;100369.88;5002741;28;20560;-86
2022/05/23 07:42:31;;;;;;;0.10;0.10;;;;;;;22.70;50.29;100366.06;5009508;28;20038;-86
2022/05/23 07:44:58;;;;;;;9.68;1.95;;;;;;;22.86;51.29;100360.31;5014158;28;20026;-85
2022/05/23 07:47:24;;;;;;;1.17;1.17;;;;;;;22.95;51.94;100353.31;5014526;28;20501;-87
2022/05/23 07:49:50;;;;;;;0.38;0.35;;;;;;;23.08;51.38;100353.22;5014765;28;20033;-86
2022/05/23 07:52:17;;;;;;;0.20;0.20;;;;;;;23.09;49.71;100357.59;5013468;28;20493;-87
2022/05/23 08:00:31;;;;;;;0.10;0.10;;;;;;;23.27;50.16;100339.94;5014712;28;20502;-86
2022/05/23 08:03:04;;;;;;;0.30;0.30;;;;;;;23.34;50.00;100336.72;5015035;28;20030;-86
2022/05/23 08:05:30;;;;;;;;;;;;;;;23.59;49.80;100339.13;5014799;28;20049;-87
2022/05/23 08:07:56;;;;;;;0.15;0.15;;;;;;;23.57;50.15;100341.09;5014174;28;19909;-88
2022/05/23 08:10:23;;;;;;;0.73;0.63;;;;;;;23.71;50.21;100339.09;5014504;28;20030;-88
2022/05/23 08:12:52;;;;;;;0.10;0.10;;;;;;;23.79;49.10;100323.09;5013917;28;20026;-88
2022/05/23 08:15:20;;;;;;;0.00;0.00;;;;;;;23.88;49.84;100319.59;5014541;28;20113;-88
2022/05/23 08:17:47;;;;;;;0.47;0.47;;;;;;;23.98;49.75;100316.16;5013565;28;20034;-88
2022/05/23 08:20:13;;;;;;;0.10;0.10;;;;;;;23.97;48.92;100317.13;5015171;28;20026;-88
2022/05/23 08:22:39;;;;;;;0.17;0.17;;;;;;;24.09;47.63;100315.22;5022052;28;20026;-89
2022/05/23 08:25:06;;;;;;;0.10;0.10;;;;;;;24.28;48.86;100309.94;5023008;28;20061;-88
2022/05/23 08:27:33;;;;;;;1.27;0.55;;;;;;;24.42;48.85;100314.16;5017455;28;20026;-88
2022/05/23 08:30:01;;;;;;;0.03;0.03;;;;;;;24.53;48.84;100302.38;5013495;28;20030;-89
2022/05/23 08:32:27;;;;;;;0.00;0.00;;;;;;;24.59;48.75;100307.28;5013511;28;20069;-89
2022/05/23 08:34:53;;;;;;;0.00;0.00;;;;;;;24.62;48.29;100306.13;5015592;28;20044;-89
2022/05/23 08:37:19;;;;;;;0.10;0.10;;;;;;;24.55;46.97;100295.84;5015569;28;20108;-88
2022/05/23 08:39:47;;;;;;;1.15;0.47;;;;;;;24.59;47.62;100295.59;5017925;28;20041;-89
2022/05/23 08:42:29;;;;;;;0.30;0.30;;;;;;;24.62;46.83;100276.34;5028196;28;20026;-88
2022/05/23 08:45:20;;;;;;;0.35;0.35;;;;;;;24.68;46.90;100283.97;5026766;28;20033;-88
2022/05/23 08:48:23;;;;;;;0.10;0.10;;;;;;;24.76;48.27;100281.44;5015510;28;20041;-88
2022/05/23 08:51:12;;;;;;;2.40;1.85;;;;;;;24.84;48.42;100284.31;5001545;28;20034;-88
2022/05/23 08:54:05;;;;;;;0.57;0.57;;;;;;;24.93;48.05;100273.66;5014333;28;20041;-88
2022/05/23 08:56:34;;;;;;;0.10;0.10;;;;;;;24.90;47.31;100272.06;5014225;28;20037;-88
2022/05/23 08:59:05;;;;;;;0.00;0.00;;;;;;;25.05;47.36;100264.41;5014451;28;20057;-88
2022/05/23 09:01:48;;;;;;;0.10;0.10;;;;;;;25.19;47.29;100261.28;5013584;28;20382;-89
2022/05/23 09:04:54;;;;;;;0.30;0.30;;;;;;;25.30;47.08;100257.59;5014099;28;20025;-90
2022/05/23 09:07:29;;;;;;;0.00;0.00;;;;;;;25.29;47.89;100255.88;5013079;28;20025;-89
2022/05/23 09:09:59;;;;;;;0.22;0.22;;;;;;;25.25;47.78;100245.47;5014736;28;20026;-87
2022/05/23 09:12:25;;;;;;;0.10;0.10;;;;;;;25.21;47.45;100247.59;5013837;28;20038;-89
2022/05/23 09:14:52;;;;;;;0.00;0.00;;;;;;;25.15;48.11;100249.00;5014414;28;20069;-89
2022/05/23 09:17:40;;;;;;;0.22;0.22;;;;;;;25.17;47.75;100252.44;5013680;28;20124;-89
2022/05/23 09:20:12;;;;;;;0.20;0.20;;;;;;;25.13;48.81;100248.28;5013360;28;20054;-88
2022/05/23 09:22:45;;;;;;;0.20;0.20;;;;;;;25.16;47.32;100248.03;5012969;28;20026;-88
2022/05/23 09:25:16;;;;;;;0.20;0.20;;;;;;;25.23;47.77;100244.75;5013110;28;20160;-88
2022/05/23 09:30:26;;;;;;;0.50;0.50;;;;;;;25.37;48.53;100238.94;5101731;27;20397;-80
2022/05/23 09:32:56;;;;;;;0.10;0.10;;;;;;;25.43;48.32;100229.38;5095931;28;20032;-81
2022/05/23 09:35:25;;;;;;;0.15;0.15;;;;;;;25.50;48.83;100219.69;5095443;28;20050;-81
2022/05/23 09:40:42;;;;;;;0.08;0.08;;;;;;;25.64;47.64;100212.97;5122800;27;1216960;-81
2022/05/23 09:49:13;;;;;;;0.37;0.37;;;;;;;25.76;46.94;100187.38;5121172;27;1193916;-81
2022/05/23 09:54:53;;;;;;;0.10;0.10;;;;;;;25.69;48.09;100186.25;5074595;28;20836;-80
2022/05/23 09:57:26;;;;;;;0.20;0.20;;;;;;;25.57;46.75;100187.41;5075111;28;20040;-81
2022/05/23 10:00:00;;;;;;;0.00;0.00;;;;;;;25.59;47.00;100182.69;5076930;28;20044;-81
2022/05/23 10:02:48;;;;;;;0.28;0.28;;;;;;;25.57;47.79;100174.72;5075476;28;20052;-82
2022/05/23 10:08:11;;;;;;;0.10;0.10;;;;;;;25.39;48.52;100160.16;5074031;28;20387;-80
2022/05/23 10:10:51;;;;;;;0.20;0.20;;;;;;;25.27;49.03;100164.84;5074654;28;20086;-80
2022/05/23 10:15:59;;;;;;;0.13;0.13;;;;;;;25.05;48.43;100166.84;5073497;28;20138;-79
2022/05/23 10:18:30;;;;;;;0.10;0.10;;;;;;;24.99;50.77;100156.56;5069967;28;20096;-81
2022/05/23 10:20:58;;;;;;;0.10;0.10;;;;;;;24.88;50.64;100149.41;5061459;28;20025;-80
2022/05/23 10:23:29;;;;;;;0.10;0.10;;;;;;;24.79;51.32;100148.41;5062809;28;20025;-80
2022/05/23 10:28:48;;;;;;;0.10;0.10;;;;;;;24.75;52.10;100135.25;5114423;27;20379;-81
2022/05/23 10:31:21;;;;;;;0.20;0.20;;;;;;;24.76;52.42;100128.84;5114118;28;20036;-81
2022/05/23 10:34:04;;;;;;;0.20;0.20;;;;;;;24.81;53.63;100107.63;5114584;28;20028;-81
2022/05/23 10:36:31;;;;;;;0.05;0.05;;;;;;;24.90;52.36;100097.78;5114750;28;20028;-81
2022/05/23 10:45:15;;;;;;;0.05;0.05;;;;;;;25.29;50.94;100108.63;5135401;27;20429;-82
2022/05/23 10:51:08;;;;;;;0.05;0.05;;;;;;;25.67;48.74;100096.00;5094484;27;20598;-81
2022/05/23 10:57:11;;;;;;;0.10;0.10;;;;;;;26.12;46.80;100094.44;5125804;27;20130;-81
2022/05/23 11:00:03;;;;;;;0.10;0.10;;;;;;;26.23;47.99;100090.69;5156694;27;20030;-81
2022/05/23 11:02:56;;;;;;;0.55;0.55;;;;;;;26.46;47.81;100094.69;5172878;27;20056;-81
2022/05/23 11:11:08;;;;;;;0.38;0.38;;;;;;;27.12;46.15;100076.34;5113977;27;20753;-81
2022/05/23 11:14:02;;;;;;;0.17;0.17;;;;;;;27.34;45.30;100057.81;5114488;28;20040;-81
2022/05/23 11:16:56;;;;;;;0.40;0.40;;;;;;;27.55;44.12;100062.91;5114297;28;20027;-80
2022/05/23 11:35:43;;;;;;;0.10;0.10;;;;;;;27.26;45.13;100041.44;5134849;28;20035;-82
2022/05/23 11:38:11;;;;;;;0.52;0.52;;;;;;;27.09;44.90;100037.72;5115914;28;20043;-82
2022/05/23 11:43:20;;;;;;;3.10;0.70;;;;;;;27.02;44.30;100026.66;5114591;27;20939;-83
2022/05/23 11:46:03;;;;;;;0.25;0.25;;;;;;;27.08;45.93;100014.28;5115974;28;20293;-82
2022/05/23 11:48:52;;;;;;;0.10;0.10;;;;;;;27.13;44.77;100001.06;5094754;28;20032;-82
2022/05/23 11:57:12;;;;;;;0.03;0.03;;;;;;;27.39;43.65;99976.59;5116485;27;20335;-81
2022/05/23 11:59:59;;;;;;;0.63;0.63;;;;;;;27.44;43.66;99968.81;5115086;28;20024;-82
2022/05/23 12:02:28;;;;;;;0.10;0.10;;;;;;;27.43;44.62;99969.84;5115483;28;20024;-82
2022/05/23 12:13:37;;;;;;;0.20;0.20;;;;;;;27.54;42.48;99948.78;5074219;28;20390;-81
2022/05/23 12:19:32;;;;;;;0.90;0.85;;;;;;;27.27;43.59;99954.25;5114594;27;20387;-82
2022/05/23 12:22:20;;;;;;;0.05;0.05;;;;;;;27.02;45.59;99950.53;5113474;28;20433;-82
2022/05/23 12:28:14;;;;;;;0.10;0.10;;;;;;;26.57;45.90;99936.06;5073358;28;20395;-81
2022/05/23 12:30:43;;;;;;;0.00;0.00;;;;;;;26.34;47.42;99943.81;5074071;28;20036;-81
2022/05/23 12:33:14;;;;;;;0.10;0.10;;;;;;;26.19;47.37;99954.38;5073801;28;20438;-81
2022/05/23 12:38:44;;;;;;;0.05;0.05;;;;;;;25.86;47.84;99947.69;5155062;27;20571;-82
2022/05/23 12:41:41;;;;;;;0.10;0.10;;;;;;;25.72;47.87;99941.81;5154496;27;20118;-81
2022/05/23 12:44:34;;;;;;;0.17;0.17;;;;;;;25.59;48.69;99930.44;5155305;27;20025;-80
2022/05/23 12:49:54;;;;;;;0.10;0.10;;;;;;;25.42;50.33;99927.53;5073800;28;20393;-81
2022/05/23 12:52:55;;;;;;;0.08;0.08;;;;;;;25.37;51.04;99927.09;5072605;28;20071;-82
2022/05/23 13:06:36;;;;;;;0.10;0.10;;;;;;;24.96;52.92;99935.50;5135243;27;20382;-82
2022/05/23 13:09:24;;;;;;;0.47;0.47;;;;;;;24.78;53.31;99943.50;5135451;28;20061;-81
2022/05/23 13:11:55;;;;;;;1.63;0.80;;;;;;;24.67;53.00;99968.03;5135367;28;20059;-81
2022/05/23 13:14:21;;;;;;;0.10;0.10;;;;;;;24.51;52.45;99983.00;5136780;28;20117;-81
2022/05/23 13:16:57;;;;;;;0.30;0.30;;;;;;;24.43;51.43;99974.72;5135154;28;20065;-81
2022/05/23 13:22:20;;;;;;;0.25;0.25;;;;;;;23.92;52.88;99982.03;5145255;22;20047;-74
2022/05/23 13:24:53;;;;;;;0.10;0.10;;;;;;;23.66;53.78;99973.53;5060586;28;20037;-74
2022/05/23 13:27:24;;;;;;;0.10;0.10;;;;;;;23.42;54.65;99993.66;5068220;28;20029;-75
2022/05/23 13:30:05;;;;;;;0.20;0.20;;;;;;;23.28;55.93;99992.16;5050971;28;20067;-75
2022/05/23 13:32:31;;;;;;;0.10;0.10;;;;;;;23.08;56.29;99977.66;5059667;28;20025;-76
2022/05/23 13:34:59;;;;;;;0.10;0.10;;;;;;;22.96;56.65;99967.91;5068430;28;20024;-76
2022/05/23 13:40:25;;;;;;;0.10;0.10;;;;;;;22.84;57.27;99951.78;5087820;27;20409;-75
2022/05/23 13:43:07;;;;;;;0.15;0.10;;;;;;;22.70;58.66;99946.69;5087439;28;20054;-75
2022/05/23 13:45:35;;;;;;;0.52;0.52;;;;;;;22.68;60.50;99935.16;5087952;28;20043;-75
2022/05/23 13:48:08;;;;;;;0.10;0.10;;;;;;;22.69;59.69;99912.56;5088178;28;20055;-75
2022/05/23 13:50:41;;;;;;;0.10;0.10;;;;;;;22.69;58.22;99899.06;5088057;28;20100;-75
2022/05/23 13:53:12;;;;;;;0.25;0.25;;;;;;;22.67;58.32;99895.63;5087663;28;20496;-75
2022/05/23 13:55:43;;;;;;;0.30;0.30;;;;;;;22.59;59.75;99902.56;5087973;28;20032;-75
2022/05/23 13:58:19;;;;;;;0.27;0.27;;;;;;;22.50;59.25;99900.63;5087807;28;20047;-75
2022/05/23 14:00:53;;;;;;;1.15;1.08;;;;;;;22.28;59.08;99879.97;5087653;28;20275;-76
2022/05/23 14:03:28;;;;;;;0.20;0.20;;;;;;;22.08;60.02;99889.75;5088706;28;20112;-77
2022/05/23 14:05:55;;;;;;;3.13;0.93;;;;;;;21.80;61.65;99886.69;5088794;28;20115;-77
2022/05/23 14:08:33;;;;;;;0.63;0.52;;;;;;;21.75;61.34;99878.13;5089143;28;20490;-77